Terminal Aerodrome Forecast
Issued by NWS

Home | Current Version | Previous Version | Graphics & Text | Print | Product List | Glossary On
Versions: 1 2 3 4 5 6 7 8 9 10 11 12 13 14 15 16 17 18 19 20
000
FTUS43 KGRB 292300
TAFAUW
TAF
KAUW 292320Z 3000/3024 32016G25KT P6SM -SN BKN024 OVC035
      TEMPO 3000/3002 SCT022 OVC035
     FM300500 33012G17KT P6SM BKN022
     FM300700 33009KT P6SM SCT020
     FM301400 32005KT P6SM BKN150
     FM302200 24005KT P6SM SCT200=

USA.gov is the U.S. government's official web portal to all federal, state and local government web resources and services.